Fisher, West Virginia
Current Conditions -  °F | °C
As of 7:15 AM on Saturday 20 Dec 2014 (Local Time) from KW99 Reporting Station
Clear Clear  
Wind Chill: 23°   Ceiling: Unl
Heat Index: 23°   Visibility: 7mi
Dew Point: 22°   Wind: 0mph
Humidity: 95%   Direction: NA
Pressure: 30.28"   Gusts: NA
Location:  39.05°N, 79°W
Report Text: KW99 201215Z AUTO 00000KT 7SM CLR M05/M06 A3028 RMK AO2 T10511058
Loading
Personal Weather Stations






























Interactive Weather Map New forecast layout! Learn more

10-Day Weather Forecast

Advertisements
Track Severe Weather on mobile